Time;durP1;ratioP1;P1;durP2;ratioP2;P2;SDS_P1;SDS_P2;PMS_P1;PMS_P2;Temp;Humidity;BMP_temperature;BMP_pressure;BME280_temperature;BME280_humidity;BME280_pressure;Samples;Min_cycle;Max_cycle;Signal;HPM_P1;HPM_P2
2024/03/25 00:02:05;;;;;;;0.32;0.20;;;;;;;5.31;63.67;93740.63;5067588;28;20036;-73
2024/03/25 00:04:31;;;;;;;0.55;0.22;;;;;;;5.29;64.01;93751.97;5086396;28;20085;-73
2024/03/25 00:06:56;;;;;;;0.43;0.20;;;;;;;5.10;63.98;93741.97;5067452;28;20059;-73
2024/03/25 00:09:22;;;;;;;0.52;0.20;;;;;;;5.13;64.21;93740.34;5084393;28;20032;-74
2024/03/25 00:11:47;;;;;;;0.05;0.03;;;;;;;5.07;64.08;93726.50;5084076;28;20467;-74
2024/03/25 00:14:13;;;;;;;0.10;0.10;;;;;;;5.04;63.92;93728.09;5085443;28;20036;-74
2024/03/25 00:16:39;;;;;;;0.35;0.10;;;;;;;4.99;64.31;93723.22;5067209;28;20056;-73
2024/03/25 00:19:04;;;;;;;0.57;0.20;;;;;;;4.98;64.64;93723.63;5084157;28;20340;-73
2024/03/25 00:21:29;;;;;;;0.20;0.10;;;;;;;4.97;64.67;93717.41;5086125;28;20107;-75
2024/03/25 00:23:56;;;;;;;0.80;0.52;;;;;;;5.03;64.24;93709.47;5083781;28;20461;-74
2024/03/25 00:26:23;;;;;;;0.20;0.20;;;;;;;5.07;64.48;93708.19;5084286;28;20135;-73
2024/03/25 00:28:48;;;;;;;0.63;0.35;;;;;;;5.06;64.27;93703.19;5084054;28;20035;-74
2024/03/25 00:31:14;;;;;;;0.80;0.50;;;;;;;5.15;64.13;93706.03;5085195;28;20027;-74
2024/03/25 00:33:39;;;;;;;1.00;0.38;;;;;;;5.11;63.81;93696.44;5085420;28;20020;-74
2024/03/25 00:36:05;;;;;;;0.68;0.30;;;;;;;5.19;63.95;93705.94;5083768;28;20505;-74
2024/03/25 00:38:30;;;;;;;0.50;0.30;;;;;;;5.28;63.86;93703.34;5084203;28;20447;-74
2024/03/25 00:40:56;;;;;;;0.50;0.30;;;;;;;5.27;64.64;93699.09;5085059;28;20427;-73
2024/03/25 00:43:21;;;;;;;0.93;0.40;;;;;;;5.25;64.39;93706.94;5067295;28;20031;-73
2024/03/25 00:45:46;;;;;;;0.45;0.30;;;;;;;5.31;63.54;93705.22;5085347;28;20483;-73
2024/03/25 00:48:12;;;;;;;0.52;0.30;;;;;;;5.30;64.03;93709.91;5083500;28;20024;-73
2024/03/25 00:50:37;;;;;;;0.60;0.30;;;;;;;5.25;63.90;93715.88;5083592;28;20035;-73
2024/03/25 00:53:03;;;;;;;0.28;0.22;;;;;;;5.27;64.30;93715.44;5083939;28;20028;-73
2024/03/25 00:55:29;;;;;;;0.20;0.20;;;;;;;5.22;64.03;93696.91;5083477;28;20020;-74
2024/03/25 00:57:54;;;;;;;0.60;0.30;;;;;;;5.13;64.63;93686.63;5084545;28;20050;-74
2024/03/25 01:00:20;;;;;;;0.20;0.10;;;;;;;5.17;64.58;93684.59;5083880;28;20485;-75
2024/03/25 01:02:46;;;;;;;1.02;0.30;;;;;;;5.14;65.17;93679.22;5083385;28;20024;-75
2024/03/25 01:05:11;;;;;;;0.47;0.20;;;;;;;5.20;65.44;93680.97;5083657;28;20043;-75
2024/03/25 01:07:36;;;;;;;0.20;0.20;;;;;;;5.31;65.21;93677.94;5083480;28;20484;-73
2024/03/25 01:10:02;;;;;;;0.45;0.22;;;;;;;5.36;64.91;93668.47;5084904;28;20406;-74
2024/03/25 01:12:27;;;;;;;0.17;0.17;;;;;;;5.39;64.62;93664.88;5082678;28;20128;-73
2024/03/25 01:14:53;;;;;;;0.65;0.25;;;;;;;5.51;64.61;93659.47;5084329;28;20143;-73
2024/03/25 01:17:18;;;;;;;1.30;0.22;;;;;;;5.51;64.89;93645.84;5083194;28;20044;-74
2024/03/25 01:19:44;;;;;;;0.25;0.20;;;;;;;5.52;65.08;93650.06;5083032;28;20020;-74
2024/03/25 01:22:09;;;;;;;0.13;0.13;;;;;;;5.54;65.32;93650.41;5066927;28;20116;-74
2024/03/25 01:24:34;;;;;;;0.20;0.17;;;;;;;5.59;64.82;93647.13;5083973;28;20051;-73
2024/03/25 01:27:00;;;;;;;0.28;0.20;;;;;;;5.65;64.81;93652.81;5083419;28;20103;-74
2024/03/25 01:29:26;;;;;;;0.68;0.22;;;;;;;5.64;65.58;93655.97;5082744;28;20024;-73
2024/03/25 01:31:51;;;;;;;0.50;0.30;;;;;;;5.80;64.98;93664.81;5082918;28;20036;-74
2024/03/25 01:34:17;;;;;;;0.50;0.25;;;;;;;5.81;65.11;93662.84;5082817;28;20028;-74
2024/03/25 01:36:42;;;;;;;0.55;0.40;;;;;;;5.93;64.63;93666.81;5082657;28;20039;-74
2024/03/25 01:39:08;;;;;;;0.35;0.20;;;;;;;5.94;64.58;93673.78;5085054;28;20024;-73
2024/03/25 01:41:33;;;;;;;0.40;0.20;;;;;;;6.01;64.52;93689.91;5082593;28;20556;-74
2024/03/25 01:43:59;;;;;;;0.38;0.30;;;;;;;6.05;64.13;93691.34;5083437;28;20426;-73
2024/03/25 01:46:24;;;;;;;0.30;0.10;;;;;;;6.05;64.40;93694.06;5082786;28;20375;-74
2024/03/25 01:48:52;;;;;;;0.20;0.10;;;;;;;6.13;64.43;93687.16;5083287;28;20028;-74
2024/03/25 01:51:19;;;;;;;0.20;0.10;;;;;;;6.07;63.78;93686.19;5082725;28;20374;-74
2024/03/25 01:53:45;;;;;;;0.63;0.10;;;;;;;5.98;64.54;93688.84;5082721;28;20034;-74
2024/03/25 01:56:12;;;;;;;0.35;0.20;;;;;;;5.93;64.29;93688.63;5066390;28;20032;-74
2024/03/25 01:58:37;;;;;;;0.20;0.10;;;;;;;5.81;64.35;93693.59;5065747;28;20043;-75
2024/03/25 02:01:03;;;;;;;0.30;0.10;;;;;;;5.84;63.50;93705.59;5083591;28;20153;-73
2024/03/25 02:03:29;;;;;;;0.25;0.10;;;;;;;5.73;63.35;93707.88;5065746;28;20472;-73
2024/03/25 02:06:01;;;;;;;0.10;0.10;;;;;;;5.67;63.34;93712.34;5069447;28;20024;-73
2024/03/25 02:08:28;;;;;;;0.17;0.10;;;;;;;5.65;63.55;93717.47;5086604;28;20085;-73
2024/03/25 02:10:54;;;;;;;0.00;0.00;;;;;;;5.54;63.88;93710.38;5086732;28;20452;-73
2024/03/25 02:13:21;;;;;;;0.50;0.20;;;;;;;5.52;63.88;93715.50;5069645;28;20028;-74
2024/03/25 02:15:46;;;;;;;0.45;0.10;;;;;;;5.44;63.54;93708.72;5088017;28;20130;-74
2024/03/25 02:18:12;;;;;;;0.25;0.17;;;;;;;5.43;63.67;93706.44;5087213;28;20044;-74
2024/03/25 02:20:37;;;;;;;0.52;0.30;;;;;;;5.41;63.77;93700.66;5087699;28;20028;-73
2024/03/25 02:23:03;;;;;;;0.38;0.22;;;;;;;5.32;63.35;93698.56;5086667;28;20020;-73
2024/03/25 02:25:31;;;;;;;0.32;0.15;;;;;;;5.15;63.52;93702.53;5086254;28;20093;-73
2024/03/25 02:27:57;;;;;;;0.10;0.10;;;;;;;5.09;63.88;93687.91;5069330;28;20411;-72
2024/03/25 02:30:22;;;;;;;0.60;0.20;;;;;;;5.06;63.83;93700.47;5088165;28;20063;-73
2024/03/25 02:32:47;;;;;;;0.20;0.20;;;;;;;5.06;64.58;93697.72;5087559;28;20035;-73
2024/03/25 02:35:15;;;;;;;0.43;0.20;;;;;;;5.09;64.65;93704.25;5086956;28;20031;-75
2024/03/25 02:37:41;;;;;;;0.95;0.50;;;;;;;5.08;64.76;93703.50;5086024;28;20134;-74
2024/03/25 02:40:08;;;;;;;0.50;0.28;;;;;;;5.12;64.64;93706.13;5086560;28;20040;-73
2024/03/25 02:42:34;;;;;;;0.35;0.30;;;;;;;5.19;64.71;93703.22;5085676;28;20437;-72
2024/03/25 02:44:59;;;;;;;0.45;0.30;;;;;;;5.22;64.64;93700.41;5086202;28;20466;-72
2024/03/25 02:47:25;;;;;;;0.47;0.32;;;;;;;5.31;64.65;93710.66;5085937;28;20029;-73
2024/03/25 02:49:51;;;;;;;0.20;0.20;;;;;;;5.28;64.85;93708.81;5085877;28;20028;-73
2024/03/25 02:52:17;;;;;;;0.20;0.20;;;;;;;5.33;64.19;93713.69;5087466;28;20027;-73
2024/03/25 02:54:42;;;;;;;0.30;0.30;;;;;;;5.38;63.72;93724.06;5068618;28;20032;-73
2024/03/25 02:57:08;;;;;;;0.20;0.17;;;;;;;5.33;63.25;93725.38;5086319;28;20043;-73
2024/03/25 02:59:33;;;;;;;0.30;0.30;;;;;;;5.30;63.14;93722.75;5087149;28;20085;-74
2024/03/25 03:01:58;;;;;;;0.20;0.20;;;;;;;5.23;63.42;93723.72;5085898;28;20043;-73
2024/03/25 03:04:24;;;;;;;0.40;0.40;;;;;;;5.14;63.16;93730.97;5087136;28;20024;-74
2024/03/25 03:06:49;;;;;;;0.43;0.35;;;;;;;5.11;63.19;93727.19;5085704;28;20054;-74
2024/03/25 03:09:15;;;;;;;0.40;0.40;;;;;;;4.99;63.48;93717.00;5085876;28;20081;-73
2024/03/25 03:11:40;;;;;;;0.70;0.60;;;;;;;4.99;64.07;93728.66;5068129;28;20123;-74
2024/03/25 03:14:06;;;;;;;0.73;0.60;;;;;;;4.84;64.13;93732.94;5085924;28;20508;-72
2024/03/25 03:16:31;;;;;;;1.00;0.50;;;;;;;4.91;64.22;93727.31;5085211;28;20051;-73
2024/03/25 03:18:56;;;;;;;0.47;0.47;;;;;;;4.92;64.22;93715.22;5087550;28;20463;-73
2024/03/25 03:21:22;;;;;;;0.88;0.57;;;;;;;5.00;63.85;93715.81;5085239;28;20028;-72
2024/03/25 03:23:47;;;;;;;0.35;0.30;;;;;;;4.98;63.11;93716.22;5085271;28;20054;-73
2024/03/25 03:26:13;;;;;;;0.40;0.40;;;;;;;4.96;63.54;93732.22;5086604;28;20032;-74
2024/03/25 03:28:40;;;;;;;0.45;0.45;;;;;;;4.93;63.30;93727.66;5068147;28;20044;-73
2024/03/25 03:31:05;;;;;;;0.57;0.52;;;;;;;4.88;63.72;93746.47;5085737;28;20128;-73
2024/03/25 03:33:31;;;;;;;1.45;0.43;;;;;;;4.86;63.72;93760.50;5084735;28;20463;-73
2024/03/25 03:35:56;;;;;;;1.00;0.63;;;;;;;4.78;63.50;93745.53;5086924;28;20122;-72
2024/03/25 03:38:22;;;;;;;0.60;0.60;;;;;;;4.84;63.17;93754.72;5086458;28;20118;-73
2024/03/25 03:40:58;;;;;;;1.50;0.73;;;;;;;4.82;63.58;93751.69;5068376;28;20482;-73
2024/03/25 03:43:23;;;;;;;1.08;0.70;;;;;;;4.74;63.75;93756.50;5084751;28;20054;-73
2024/03/25 03:45:48;;;;;;;1.08;0.73;;;;;;;4.82;63.77;93773.47;5086250;28;20035;-74
2024/03/25 03:48:14;;;;;;;1.30;0.60;;;;;;;4.78;64.14;93759.16;5086627;28;20028;-74
2024/03/25 03:50:39;;;;;;;0.73;0.50;;;;;;;4.94;63.58;93770.03;5067487;28;20545;-73
2024/03/25 03:53:04;;;;;;;1.05;0.90;;;;;;;4.94;62.99;93767.31;5086741;28;20020;-74
2024/03/25 03:55:30;;;;;;;1.95;0.98;;;;;;;4.90;63.08;93765.88;5084109;28;20050;-73
2024/03/25 03:57:55;;;;;;;1.02;0.88;;;;;;;4.87;62.77;93762.03;5084858;28;20115;-74
2024/03/25 04:00:21;;;;;;;1.58;0.93;;;;;;;4.94;62.46;93766.53;5084247;28;20043;-74
2024/03/25 04:02:46;;;;;;;1.92;1.00;;;;;;;4.91;62.87;93775.56;5086226;28;20490;-73
2024/03/25 04:05:11;;;;;;;1.42;0.80;;;;;;;4.97;62.32;93782.78;5084402;28;20019;-73
2024/03/25 04:07:38;;;;;;;2.05;1.35;;;;;;;4.94;62.46;93783.66;5067398;28;20111;-72
2024/03/25 04:10:04;;;;;;;1.42;1.17;;;;;;;4.94;62.50;93799.22;5085076;28;20023;-74
2024/03/25 04:12:29;;;;;;;3.22;1.40;;;;;;;4.85;62.24;93777.28;5083725;28;20085;-74
2024/03/25 04:14:56;;;;;;;2.42;1.40;;;;;;;4.92;62.23;93794.19;5084757;28;20089;-74
2024/03/25 04:17:21;;;;;;;2.65;1.50;;;;;;;4.91;62.60;93781.00;5085388;28;20043;-74
2024/03/25 04:19:50;;;;;;;2.83;1.45;;;;;;;4.89;62.28;93786.88;5084256;28;20027;-74
2024/03/25 04:22:16;;;;;;;2.40;1.40;;;;;;;4.92;62.71;93805.06;5084209;28;20556;-74
2024/03/25 04:24:43;;;;;;;2.33;1.73;;;;;;;4.88;62.86;93801.69;5066954;28;20059;-74
2024/03/25 04:27:08;;;;;;;2.92;1.48;;;;;;;4.94;62.79;93816.34;5084474;28;20024;-74
2024/03/25 04:29:34;;;;;;;3.75;1.90;;;;;;;4.96;62.48;93818.63;5083664;28;20097;-74
2024/03/25 04:31:59;;;;;;;4.10;2.00;;;;;;;4.95;62.95;93806.19;5084483;28;20127;-74
2024/03/25 04:34:24;;;;;;;4.15;2.08;;;;;;;5.00;62.64;93806.44;5085154;28;20097;-75
2024/03/25 04:36:50;;;;;;;4.80;2.20;;;;;;;5.03;62.44;93824.63;5083979;28;20404;-75
2024/03/25 04:39:15;;;;;;;3.22;2.45;;;;;;;5.04;62.37;93839.03;5085308;28;20107;-75
2024/03/25 04:41:40;;;;;;;5.15;2.95;;;;;;;5.12;62.03;93855.97;5083819;28;20032;-74
2024/03/25 04:44:06;;;;;;;4.15;2.65;;;;;;;5.08;62.28;93864.22;5084004;28;20115;-76
2024/03/25 04:46:31;;;;;;;6.85;2.85;;;;;;;5.06;62.46;93864.66;5066452;28;20029;-74
2024/03/25 04:48:57;;;;;;;5.18;3.33;;;;;;;5.07;62.48;93863.47;5084528;28;20047;-74
2024/03/25 04:51:23;;;;;;;5.10;3.83;;;;;;;5.15;62.23;93863.28;5083516;28;20098;-74
2024/03/25 04:53:48;;;;;;;5.25;3.38;;;;;;;5.17;62.30;93871.81;5084333;28;20051;-74
2024/03/25 04:56:13;;;;;;;5.47;3.47;;;;;;;5.19;62.39;93867.44;5084899;28;20031;-75
2024/03/25 04:58:39;;;;;;;5.10;3.38;;;;;;;5.28;62.06;93877.75;5084676;28;20027;-74
2024/03/25 05:01:04;;;;;;;5.70;3.25;;;;;;;5.30;62.12;93876.13;5084892;28;20019;-75
2024/03/25 05:03:30;;;;;;;6.75;3.45;;;;;;;5.32;62.19;93865.53;5083273;28;20032;-74
2024/03/25 05:05:56;;;;;;;5.68;3.33;;;;;;;5.46;60.73;93867.16;5085063;28;20020;-74
2024/03/25 05:08:21;;;;;;;5.65;4.00;;;;;;;5.47;60.31;93868.69;5084670;28;20039;-74
2024/03/25 05:10:47;;;;;;;5.60;3.85;;;;;;;5.41;60.37;93859.50;5085066;28;20024;-74
2024/03/25 05:13:12;;;;;;;7.07;4.05;;;;;;;5.40;60.23;93855.25;5082907;28;20394;-74
2024/03/25 05:15:38;;;;;;;7.25;4.50;;;;;;;5.43;60.21;93864.50;5084560;28;20047;-74
2024/03/25 05:18:03;;;;;;;6.22;4.40;;;;;;;5.44;60.12;93858.63;5083268;28;20141;-72
2024/03/25 05:20:29;;;;;;;5.45;3.45;;;;;;;5.45;59.97;93865.63;5084570;28;20378;-75
2024/03/25 05:22:54;;;;;;;8.45;4.32;;;;;;;5.49;60.01;93874.47;5083223;28;20031;-74
2024/03/25 05:25:24;;;;;;;6.50;4.50;;;;;;;5.42;59.88;93860.25;5065939;28;20107;-75
2024/03/25 05:27:49;;;;;;;6.97;4.28;;;;;;;5.40;59.48;93862.66;5085382;28;20458;-74
2024/03/25 05:30:15;;;;;;;6.63;4.35;;;;;;;5.51;59.26;93879.50;5084258;28;20481;-74
2024/03/25 05:32:40;;;;;;;8.82;5.30;;;;;;;5.46;59.58;93890.94;5084594;28;20032;-74
2024/03/25 05:35:06;;;;;;;7.82;4.88;;;;;;;5.41;60.00;93869.63;5084264;28;20375;-74
2024/03/25 05:37:33;;;;;;;9.25;5.60;;;;;;;5.53;59.78;93891.50;5082762;28;20028;-74
2024/03/25 05:39:59;;;;;;;8.63;5.28;;;;;;;5.56;59.76;93892.59;5082102;28;20035;-74
2024/03/25 05:42:24;;;;;;;7.90;4.90;;;;;;;5.60;59.36;93902.22;5082722;28;20237;-74
2024/03/25 05:44:50;;;;;;;7.30;5.00;;;;;;;5.63;59.70;93899.84;5083001;28;20475;-74
2024/03/25 05:47:15;;;;;;;7.03;4.45;;;;;;;5.71;59.11;93901.94;5082897;28;20028;-74
2024/03/25 05:49:41;;;;;;;9.45;5.22;;;;;;;5.77;58.60;93907.63;5082910;28;20460;-74
2024/03/25 05:52:07;;;;;;;6.57;4.45;;;;;;;5.78;58.50;93912.66;5082877;28;20044;-75
2024/03/25 05:54:32;;;;;;;7.10;5.13;;;;;;;5.83;58.74;93917.56;5083963;28;20032;-73
2024/03/25 05:56:57;;;;;;;7.45;5.28;;;;;;;5.87;58.77;93925.66;5082824;28;20388;-74
2024/03/25 05:59:23;;;;;;;8.10;5.55;;;;;;;5.95;58.88;93929.75;5065906;28;20505;-72
2024/03/25 06:01:48;;;;;;;8.55;5.40;;;;;;;5.94;58.83;93925.50;5082840;28;20024;-73
2024/03/25 06:04:14;;;;;;;9.32;5.95;;;;;;;6.05;58.29;93917.03;5082569;28;20027;-74
2024/03/25 06:06:39;;;;;;;7.40;5.00;;;;;;;6.04;57.92;93929.91;5082498;28;20028;-73
2024/03/25 06:09:05;;;;;;;7.30;5.60;;;;;;;6.04;58.31;93931.88;5083939;28;21001;-73
2024/03/25 06:11:31;;;;;;;9.07;6.40;;;;;;;6.11;58.19;93939.84;5082549;28;20020;-74
2024/03/25 06:13:56;;;;;;;8.40;6.10;;;;;;;6.16;58.05;93944.78;5082277;28;20564;-73
2024/03/25 06:16:21;;;;;;;8.27;5.30;;;;;;;6.19;58.05;93948.59;5082401;28;20058;-75
2024/03/25 06:18:47;;;;;;;7.22;5.43;;;;;;;6.10;57.02;93951.97;5084221;28;20043;-72
2024/03/25 06:21:13;;;;;;;9.23;6.18;;;;;;;6.11;57.23;93959.72;5088801;28;20032;-73
2024/03/25 06:23:38;;;;;;;8.38;5.28;;;;;;;6.10;57.44;93952.75;5084358;28;20028;-73
2024/03/25 06:26:04;;;;;;;7.63;5.72;;;;;;;6.15;57.65;93954.19;5083747;28;20518;-73
2024/03/25 06:28:29;;;;;;;9.40;5.97;;;;;;;6.33;57.29;93964.59;5084222;28;20032;-73
2024/03/25 06:36:22;;;;;;;8.10;6.03;;;;;;;6.61;56.05;93960.28;5083926;28;19941;-74
2024/03/25 06:38:48;;;;;;;7.22;5.00;;;;;;;6.61;55.80;93960.28;5083495;28;20528;-73
2024/03/25 06:41:14;;;;;;;8.65;6.03;;;;;;;6.65;56.18;93959.00;5084696;28;20032;-74
2024/03/25 06:43:39;;;;;;;7.50;5.28;;;;;;;6.65;55.81;93967.19;5065149;28;20028;-74
2024/03/25 06:46:06;;;;;;;8.27;5.85;;;;;;;6.66;55.89;93970.69;5082712;28;20035;-74
2024/03/25 06:48:31;;;;;;;7.75;5.70;;;;;;;6.62;55.78;93970.00;5081897;28;20058;-74
2024/03/25 06:50:58;;;;;;;8.88;5.97;;;;;;;6.56;56.85;93977.22;5083786;28;20321;-74
2024/03/25 06:53:23;;;;;;;8.68;6.03;;;;;;;6.50;56.61;93979.72;5086196;28;20061;-73
2024/03/25 06:55:55;;;;;;;8.15;5.68;;;;;;;6.49;55.89;93989.09;5068302;28;20035;-73
2024/03/25 06:58:22;;;;;;;7.45;5.78;;;;;;;6.47;55.70;93988.00;5086372;28;20054;-75
2024/03/25 07:00:48;;;;;;;8.73;7.25;;;;;;;6.45;55.45;93985.69;5085461;28;20020;-75
2024/03/25 07:03:22;;;;;;;9.35;6.10;;;;;;;6.46;56.03;93972.81;5069131;28;20188;-74
2024/03/25 07:05:48;;;;;;;8.32;6.32;;;;;;;6.43;55.81;93992.81;5085502;28;20038;-73
2024/03/25 07:08:14;;;;;;;8.30;6.35;;;;;;;6.56;55.49;93994.38;5086963;28;20028;-74
2024/03/25 07:10:43;;;;;;;9.75;6.20;;;;;;;6.61;54.90;93995.78;5068370;28;20047;-73
2024/03/25 07:13:08;;;;;;;8.93;6.25;;;;;;;6.67;54.94;93998.75;5084871;28;20028;-74
2024/03/25 07:15:34;;;;;;;8.45;6.47;;;;;;;6.71;54.79;93996.66;5085643;28;20336;-74
2024/03/25 07:17:59;;;;;;;8.52;5.85;;;;;;;6.74;54.76;94001.28;5085321;28;20044;-74
2024/03/25 07:20:26;;;;;;;7.53;6.15;;;;;;;6.85;54.55;94009.94;5085841;28;20024;-74
2024/03/25 07:22:57;;;;;;;11.50;6.15;;;;;;;7.00;54.04;94018.47;5085204;28;20028;-74
2024/03/25 07:25:24;;;;;;;9.05;6.68;;;;;;;6.97;53.59;94017.38;5086652;28;20103;-74
2024/03/25 07:27:49;;;;;;;8.80;6.20;;;;;;;7.07;53.55;94010.84;5087487;28;20028;-74
2024/03/25 07:30:15;;;;;;;8.63;6.35;;;;;;;7.22;53.82;94016.63;5085324;28;20059;-74
2024/03/25 07:32:41;;;;;;;7.60;6.30;;;;;;;7.35;52.90;94019.38;5085505;28;20113;-74
2024/03/25 07:35:07;;;;;;;8.02;5.88;;;;;;;7.43;52.47;94023.41;5068066;28;20438;-74
2024/03/25 07:37:33;;;;;;;7.47;5.60;;;;;;;7.45;52.23;94020.97;5086809;28;20397;-74
2024/03/25 07:39:59;;;;;;;6.28;5.38;;;;;;;7.57;51.96;94020.22;5068388;28;20020;-74
2024/03/25 07:42:24;;;;;;;7.07;5.93;;;;;;;7.76;52.01;94028.63;5085178;28;20031;-74
2024/03/25 07:44:49;;;;;;;9.50;6.25;;;;;;;7.94;51.77;94020.59;5086175;28;20032;-74
2024/03/25 07:47:15;;;;;;;8.25;5.70;;;;;;;8.03;51.50;94012.47;5086760;28;20078;-74
2024/03/25 07:49:40;;;;;;;9.77;5.57;;;;;;;8.24;50.26;94019.19;5086344;28;20031;-73
2024/03/25 07:52:06;;;;;;;7.78;5.57;;;;;;;8.39;49.18;94036.69;5086041;28;20528;-73
2024/03/25 07:54:32;;;;;;;8.68;5.78;;;;;;;8.60;50.17;94017.97;5085420;28;20055;-74
2024/03/25 07:56:58;;;;;;;7.93;5.53;;;;;;;8.62;48.59;94023.78;5085975;28;20061;-74
2024/03/25 07:59:23;;;;;;;6.15;4.88;;;;;;;8.80;48.84;94034.09;5084976;28;20098;-74
2024/03/25 08:01:49;;;;;;;6.78;5.45;;;;;;;8.92;48.45;94033.25;5084080;28;20024;-74
2024/03/25 08:04:14;;;;;;;6.20;5.20;;;;;;;9.01;48.76;94033.31;5085807;28;20487;-74
2024/03/25 08:06:39;;;;;;;6.20;5.55;;;;;;;9.00;48.47;94027.06;5084202;28;20434;-74
2024/03/25 08:09:05;;;;;;;9.45;5.80;;;;;;;9.14;48.05;94038.72;5084397;28;20103;-74
2024/03/25 08:11:33;;;;;;;6.70;5.30;;;;;;;9.18;47.19;94036.59;5067888;28;20020;-74
2024/03/25 08:13:59;;;;;;;5.95;4.45;;;;;;;9.26;46.71;94038.63;5085345;28;20034;-74
2024/03/25 08:16:24;;;;;;;5.78;5.18;;;;;;;9.30;46.49;94035.75;5084732;28;20162;-73
2024/03/25 08:18:50;;;;;;;6.00;4.93;;;;;;;9.42;46.11;94056.06;5086016;28;20036;-73
2024/03/25 08:21:16;;;;;;;8.85;5.57;;;;;;;9.42;46.16;94053.31;5084647;28;20115;-73
2024/03/25 08:23:41;;;;;;;6.15;4.50;;;;;;;9.50;46.25;94058.06;5067194;28;20032;-73
2024/03/25 08:26:07;;;;;;;5.70;4.72;;;;;;;9.71;46.73;94056.50;5067197;28;20031;-74
2024/03/25 08:28:33;;;;;;;6.00;5.07;;;;;;;9.73;45.82;94050.53;5084375;28;20044;-74
2024/03/25 08:30:59;;;;;;;6.28;4.38;;;;;;;9.70;44.91;94060.44;5083912;28;20093;-74
2024/03/25 08:33:24;;;;;;;6.13;5.15;;;;;;;9.92;44.66;94056.84;5088059;28;20416;-75
2024/03/25 08:35:49;;;;;;;6.57;4.95;;;;;;;10.10;43.66;94057.66;5083710;28;20032;-74
2024/03/25 08:38:15;;;;;;;7.25;5.40;;;;;;;10.28;44.14;94070.69;5085982;28;20020;-73
2024/03/25 08:40:40;;;;;;;6.13;4.55;;;;;;;10.22;42.67;94060.75;5083929;28;20030;-74
2024/03/25 08:43:06;;;;;;;6.95;4.80;;;;;;;10.32;43.46;94059.53;5085802;28;20028;-73
2024/03/25 08:45:32;;;;;;;6.97;5.10;;;;;;;10.41;43.16;94062.31;5083996;28;20070;-74
2024/03/25 08:47:57;;;;;;;5.75;4.40;;;;;;;10.72;42.84;94066.88;5083650;28;20042;-75
2024/03/25 08:50:22;;;;;;;5.57;4.60;;;;;;;10.84;41.88;94066.75;5084293;28;20704;-74
2024/03/25 08:52:48;;;;;;;6.95;4.82;;;;;;;10.93;41.92;94067.97;5083727;28;20016;-74
2024/03/25 08:55:13;;;;;;;5.90;4.82;;;;;;;10.88;42.10;94081.09;5085386;28;20032;-75
2024/03/25 08:57:39;;;;;;;8.05;4.68;;;;;;;11.01;41.29;94067.19;5084891;28;20020;-73
2024/03/25 09:00:10;;;;;;;5.65;4.40;;;;;;;10.85;42.12;94064.75;5085357;28;20063;-74
2024/03/25 09:02:35;;;;;;;5.45;4.63;;;;;;;11.04;41.99;94062.75;5083637;28;20482;-74
2024/03/25 09:05:01;;;;;;;4.93;4.43;;;;;;;11.09;41.61;94051.88;5083216;28;20024;-74
2024/03/25 09:07:26;;;;;;;5.55;4.60;;;;;;;11.24;40.93;94065.00;5085241;28;20035;-74
2024/03/25 09:12:35;;;;;;;;;;;;;;;11.01;41.23;94063.66;5085658;28;20059;-74
2024/03/25 09:15:01;;;;;;;6.13;4.65;;;;;;;10.73;41.81;94076.69;5065492;28;19947;-74
2024/03/25 09:17:27;;;;;;;5.53;4.53;;;;;;;10.49;42.53;94082.75;5084552;28;20529;-74
2024/03/25 09:19:52;;;;;;;6.15;4.63;;;;;;;10.30;42.28;94079.22;5087452;28;20032;-74
2024/03/25 09:22:17;;;;;;;7.32;5.18;;;;;;;10.17;43.33;94089.56;5089303;28;20023;-74
2024/03/25 09:24:43;;;;;;;6.75;5.13;;;;;;;10.07;43.55;94085.25;5084681;28;20111;-73
2024/03/25 09:27:08;;;;;;;8.02;4.93;;;;;;;9.95;43.58;94078.66;5083296;28;20027;-74
2024/03/25 09:29:33;;;;;;;6.45;4.85;;;;;;;9.93;43.71;94088.59;5084042;28;20500;-74
2024/03/25 09:31:59;;;;;;;8.35;4.93;;;;;;;9.69;44.52;94080.09;5083047;28;20020;-73
2024/03/25 09:34:24;;;;;;;7.10;4.97;;;;;;;9.64;44.44;94075.97;5083694;28;20028;-73
2024/03/25 09:36:50;;;;;;;5.32;4.60;;;;;;;9.63;44.41;94079.91;5082764;28;20027;-74
2024/03/25 09:39:15;;;;;;;7.32;4.72;;;;;;;9.71;44.42;94083.16;5083133;28;20608;-74
2024/03/25 09:41:43;;;;;;;5.65;4.63;;;;;;;9.57;44.22;94078.97;5067212;28;20023;-74
2024/03/25 09:44:09;;;;;;;7.55;4.95;;;;;;;9.52;44.61;94085.09;5066067;28;20103;-74
2024/03/25 09:46:36;;;;;;;6.13;4.78;;;;;;;9.65;43.77;94082.22;5083675;28;20121;-74
2024/03/25 09:49:05;;;;;;;6.68;5.10;;;;;;;9.65;43.75;94079.50;5083199;28;20052;-74
2024/03/25 09:51:31;;;;;;;7.10;4.90;;;;;;;9.64;44.41;94083.47;5084677;28;20032;-74
2024/03/25 09:53:56;;;;;;;6.10;4.50;;;;;;;9.57;44.29;94076.25;5082915;28;20429;-74
2024/03/25 09:56:22;;;;;;;5.50;4.20;;;;;;;9.70;44.09;94087.13;5082739;28;20118;-74
2024/03/25 09:58:47;;;;;;;8.68;4.57;;;;;;;10.03;43.74;94082.66;5084197;28;20024;-74
2024/03/25 10:01:12;;;;;;;5.03;4.20;;;;;;;10.30;42.39;94081.97;5082796;28;20070;-74
2024/03/25 10:03:38;;;;;;;5.15;4.60;;;;;;;10.94;41.23;94095.00;5083101;28;20028;-74
2024/03/25 10:06:03;;;;;;;4.47;3.53;;;;;;;11.03;40.54;94094.22;5084065;28;20139;-74
2024/03/25 10:08:32;;;;;;;5.55;3.83;;;;;;;11.07;40.38;94090.09;5084991;28;20032;-74
2024/03/25 10:10:58;;;;;;;6.00;4.35;;;;;;;11.03;40.01;94084.00;5082749;28;20040;-75
2024/03/25 10:13:23;;;;;;;4.25;3.30;;;;;;;11.17;40.04;94085.34;5082509;28;20035;-74
2024/03/25 10:15:49;;;;;;;4.68;4.05;;;;;;;11.05;39.48;94091.78;5082792;28;20036;-73
2024/03/25 10:18:14;;;;;;;5.80;4.70;;;;;;;10.98;40.47;94100.34;5082673;28;20036;-74
2024/03/25 10:20:53;;;;;;;5.95;4.25;;;;;;;10.99;40.25;94104.63;5084239;28;20434;-74
2024/03/25 10:23:25;;;;;;;5.80;4.85;;;;;;;10.93;40.48;94089.97;5065870;28;20024;-72
2024/03/25 10:25:52;;;;;;;7.10;4.32;;;;;;;10.82;39.73;94091.19;5084596;28;20028;-74
2024/03/25 10:28:17;;;;;;;5.22;3.83;;;;;;;10.72;39.25;94083.38;5086741;28;20040;-74
2024/03/25 10:30:43;;;;;;;10.48;4.80;;;;;;;10.72;39.51;94077.88;5086484;28;20024;-74
2024/03/25 10:33:08;;;;;;;5.65;4.10;;;;;;;10.67;39.14;94089.50;5086425;28;20016;-73
2024/03/25 10:35:36;;;;;;;6.10;3.70;;;;;;;10.43;38.60;94078.34;5086362;28;20032;-74
2024/03/25 10:38:06;;;;;;;6.03;3.60;;;;;;;10.83;37.97;94075.44;5086714;28;20054;-74
2024/03/25 10:40:39;;;;;;;6.32;3.97;;;;;;;11.04;37.44;94084.75;5086376;28;20020;-74
2024/03/25 10:43:08;;;;;;;5.88;3.72;;;;;;;11.02;37.33;94098.22;5086486;28;20120;-75
2024/03/25 10:45:40;;;;;;;5.72;3.95;;;;;;;11.70;36.95;94084.91;5069384;28;20403;-74
2024/03/25 10:48:19;;;;;;;5.47;3.70;;;;;;;13.36;34.56;94093.66;5086166;28;20479;-74
2024/03/25 10:50:46;;;;;;;5.75;4.00;;;;;;;13.47;33.91;94077.25;5090305;28;20413;-74
2024/03/25 10:53:12;;;;;;;4.88;3.30;;;;;;;12.91;34.34;94076.25;5087703;28;20035;-73
2024/03/25 10:55:37;;;;;;;3.78;3.17;;;;;;;12.47;34.38;94087.91;5069572;28;20036;-73
2024/03/25 10:58:04;;;;;;;4.57;3.85;;;;;;;12.03;35.23;94082.19;5087145;28;20024;-74
2024/03/25 11:00:29;;;;;;;4.90;4.40;;;;;;;12.26;35.41;94091.69;5069341;28;20494;-74
2024/03/25 11:02:55;;;;;;;9.45;3.95;;;;;;;13.36;34.15;94090.91;5085785;28;20012;-75
2024/03/25 11:05:21;;;;;;;4.78;3.40;;;;;;;13.25;34.15;94088.69;5085772;28;20039;-75
2024/03/25 11:07:47;;;;;;;4.53;3.10;;;;;;;14.29;33.14;94083.81;5085651;28;20540;-74
2024/03/25 11:10:12;;;;;;;6.72;3.80;;;;;;;15.98;30.48;94083.66;5087273;28;20500;-75
2024/03/25 11:12:41;;;;;;;3.72;2.67;;;;;;;16.63;29.27;94064.41;5087446;28;20066;-74
2024/03/25 11:15:09;;;;;;;5.50;3.05;;;;;;;17.43;28.53;94085.63;5085449;28;20032;-74
2024/03/25 11:17:36;;;;;;;4.68;2.58;;;;;;;17.86;27.73;94075.09;5085893;28;20465;-73
2024/03/25 11:20:10;;;;;;;4.05;3.20;;;;;;;18.12;28.38;94104.66;5085619;28;20079;-73
2024/03/25 11:22:35;;;;;;;4.78;2.95;;;;;;;16.90;29.96;94088.00;5087074;28;20028;-73
2024/03/25 11:25:07;;;;;;;3.90;2.80;;;;;;;15.80;31.99;94092.34;5085331;28;20035;-73
2024/03/25 11:27:36;;;;;;;3.60;2.65;;;;;;;15.35;32.65;94098.19;5085462;28;20028;-74
2024/03/25 11:30:03;;;;;;;3.08;2.50;;;;;;;16.75;30.37;94104.09;5085554;28;20032;-75
2024/03/25 11:32:28;;;;;;;4.07;2.60;;;;;;;17.47;29.36;94111.16;5086861;28;20020;-75
2024/03/25 11:34:54;;;;;;;4.20;2.70;;;;;;;17.69;28.63;94088.97;5085463;28;20050;-74
2024/03/25 11:37:19;;;;;;;4.05;2.67;;;;;;;16.80;30.35;94106.13;5085679;28;20425;-74
2024/03/25 11:39:44;;;;;;;4.13;2.80;;;;;;;15.53;31.86;94094.31;5086265;28;20120;-74
2024/03/25 11:42:10;;;;;;;3.53;2.60;;;;;;;15.19;32.77;94109.84;5086613;28;20028;-74